Alma, Arkansas
Current Conditions -  °F | °C
As of 5:39 AM on Thursday 18 Dec 2014 (Local Time) from KFSM Reporting Station
Haze Haze  
Wind Chill: 30°   Ceiling: 700
Heat Index: 37°   Visibility: 4mi
Dew Point: 35°   Wind: 9mph
Humidity: 93%   Direction: 80°E
Pressure: 30.18"   Gusts: NA
Location:  35.48°N, 94.22°W
Report Text: KFSM 181139Z 08008KT 4SM BR BKN007 OVC013 03/02 A3018 RMK AO2 T00280017
Loading
Personal Weather Stations






























Interactive Weather Map New forecast layout! Learn more

10-Day Weather Forecast

Advertisements
Track Severe Weather on mobile